sensor_id;sensor_type;location;lat;lon;timestamp;temperature;humidity
39695;DHT22;25367;-35.352;149.036;2023-05-07T00:02:10;18.00;58.10
39695;DHT22;25367;-35.352;149.036;2023-05-07T00:04:39;18.00;58.10
39695;DHT22;25367;-35.352;149.036;2023-05-07T00:07:09;17.90;58.00
39695;DHT22;25367;-35.352;149.036;2023-05-07T00:09:38;17.90;58.00
39695;DHT22;25367;-35.352;149.036;2023-05-07T00:12:07;18.00;58.10
39695;DHT22;25367;-35.352;149.036;2023-05-07T00:14:37;17.90;58.00
39695;DHT22;25367;-35.352;149.036;2023-05-07T00:17:06;17.90;57.90
39695;DHT22;25367;-35.352;149.036;2023-05-07T00:19:39;17.90;57.90
39695;DHT22;25367;-35.352;149.036;2023-05-07T00:22:09;17.90;57.90
39695;DHT22;25367;-35.352;149.036;2023-05-07T00:24:39;17.90;57.90
39695;DHT22;25367;-35.352;149.036;2023-05-07T00:27:09;18.00;57.90
39695;DHT22;25367;-35.352;149.036;2023-05-07T00:29:38;17.90;58.10
39695;DHT22;25367;-35.352;149.036;2023-05-07T00:32:08;17.90;58.40
39695;DHT22;25367;-35.352;149.036;2023-05-07T00:34:39;18.00;58.80
39695;DHT22;25367;-35.352;149.036;2023-05-07T00:37:08;18.00;59.10
39695;DHT22;25367;-35.352;149.036;2023-05-07T00:39:38;18.10;59.50
39695;DHT22;25367;-35.352;149.036;2023-05-07T00:42:07;18.10;59.70
39695;DHT22;25367;-35.352;149.036;2023-05-07T00:44:37;18.20;60.00
39695;DHT22;25367;-35.352;149.036;2023-05-07T00:47:06;18.30;59.80
39695;DHT22;25367;-35.352;149.036;2023-05-07T00:49:41;18.40;59.60
39695;DHT22;25367;-35.352;149.036;2023-05-07T00:52:13;18.50;59.60
39695;DHT22;25367;-35.352;149.036;2023-05-07T00:54:43;18.60;59.80
39695;DHT22;25367;-35.352;149.036;2023-05-07T00:57:12;18.60;59.80
39695;DHT22;25367;-35.352;149.036;2023-05-07T00:59:42;18.70;59.90
39695;DHT22;25367;-35.352;149.036;2023-05-07T01:02:12;18.80;60.00
39695;DHT22;25367;-35.352;149.036;2023-05-07T01:04:45;18.90;60.10
39695;DHT22;25367;-35.352;149.036;2023-05-07T01:07:14;19.00;60.00
39695;DHT22;25367;-35.352;149.036;2023-05-07T01:09:44;19.10;60.00
39695;DHT22;25367;-35.352;149.036;2023-05-07T01:12:14;19.20;60.00
39695;DHT22;25367;-35.352;149.036;2023-05-07T01:14:44;19.30;59.90
39695;DHT22;25367;-35.352;149.036;2023-05-07T01:17:13;19.40;59.80
39695;DHT22;25367;-35.352;149.036;2023-05-07T01:19:45;19.40;59.60
39695;DHT22;25367;-35.352;149.036;2023-05-07T01:22:16;19.50;59.50
39695;DHT22;25367;-35.352;149.036;2023-05-07T01:24:53;19.60;59.60
39695;DHT22;25367;-35.352;149.036;2023-05-07T01:27:23;19.60;59.50
39695;DHT22;25367;-35.352;149.036;2023-05-07T01:29:54;19.70;59.40
39695;DHT22;25367;-35.352;149.036;2023-05-07T01:32:26;19.70;59.20
39695;DHT22;25367;-35.352;149.036;2023-05-07T01:34:57;19.70;59.20
39695;DHT22;25367;-35.352;149.036;2023-05-07T01:37:27;19.70;59.00
39695;DHT22;25367;-35.352;149.036;2023-05-07T01:39:59;19.80;59.30
39695;DHT22;25367;-35.352;149.036;2023-05-07T01:42:30;19.80;59.00
39695;DHT22;25367;-35.352;149.036;2023-05-07T01:45:00;19.80;58.90
39695;DHT22;25367;-35.352;149.036;2023-05-07T01:47:30;19.90;58.80
39695;DHT22;25367;-35.352;149.036;2023-05-07T01:50:00;19.90;58.70
39695;DHT22;25367;-35.352;149.036;2023-05-07T01:52:29;19.90;58.60
39695;DHT22;25367;-35.352;149.036;2023-05-07T01:55:01;19.90;58.50
39695;DHT22;25367;-35.352;149.036;2023-05-07T01:57:31;19.90;58.40
39695;DHT22;25367;-35.352;149.036;2023-05-07T02:00:00;19.90;58.30
39695;DHT22;25367;-35.352;149.036;2023-05-07T02:02:30;19.90;58.20
39695;DHT22;25367;-35.352;149.036;2023-05-07T02:05:01;19.90;58.10
39695;DHT22;25367;-35.352;149.036;2023-05-07T02:07:31;19.90;58.10
39695;DHT22;25367;-35.352;149.036;2023-05-07T02:10:02;19.90;58.00
39695;DHT22;25367;-35.352;149.036;2023-05-07T02:12:32;19.90;57.90
39695;DHT22;25367;-35.352;149.036;2023-05-07T02:15:01;19.90;57.80
39695;DHT22;25367;-35.352;149.036;2023-05-07T02:17:31;19.90;57.70
39695;DHT22;25367;-35.352;149.036;2023-05-07T02:20:00;19.90;57.60
39695;DHT22;25367;-35.352;149.036;2023-05-07T02:22:30;19.90;57.60
39695;DHT22;25367;-35.352;149.036;2023-05-07T02:25:01;19.90;57.50
39695;DHT22;25367;-35.352;149.036;2023-05-07T02:27:30;19.90;57.50
39695;DHT22;25367;-35.352;149.036;2023-05-07T02:30:00;19.90;57.60
39695;DHT22;25367;-35.352;149.036;2023-05-07T02:32:29;19.90;57.40
39695;DHT22;25367;-35.352;149.036;2023-05-07T02:34:59;19.90;57.50
39695;DHT22;25367;-35.352;149.036;2023-05-07T02:37:29;19.90;57.50
39695;DHT22;25367;-35.352;149.036;2023-05-07T02:39:58;19.90;57.30
39695;DHT22;25367;-35.352;149.036;2023-05-07T02:42:29;19.80;57.20
39695;DHT22;25367;-35.352;149.036;2023-05-07T02:44:59;19.80;57.10
39695;DHT22;25367;-35.352;149.036;2023-05-07T02:47:28;19.80;57.20
39695;DHT22;25367;-35.352;149.036;2023-05-07T02:50:00;19.80;57.10
39695;DHT22;25367;-35.352;149.036;2023-05-07T02:52:29;19.80;57.00
39695;DHT22;25367;-35.352;149.036;2023-05-07T02:54:59;19.80;57.00
39695;DHT22;25367;-35.352;149.036;2023-05-07T02:57:31;19.80;57.00
39695;DHT22;25367;-35.352;149.036;2023-05-07T03:00:10;19.80;56.90
39695;DHT22;25367;-35.352;149.036;2023-05-07T03:02:40;19.70;56.80
39695;DHT22;25367;-35.352;149.036;2023-05-07T03:05:09;19.70;56.80
39695;DHT22;25367;-35.352;149.036;2023-05-07T03:07:39;19.70;56.70
39695;DHT22;25367;-35.352;149.036;2023-05-07T03:10:09;19.70;56.70
39695;DHT22;25367;-35.352;149.036;2023-05-07T03:12:40;19.70;56.60
39695;DHT22;25367;-35.352;149.036;2023-05-07T03:15:12;19.70;56.50
39695;DHT22;25367;-35.352;149.036;2023-05-07T03:17:41;19.70;56.50
39695;DHT22;25367;-35.352;149.036;2023-05-07T03:20:11;19.60;56.40
39695;DHT22;25367;-35.352;149.036;2023-05-07T03:22:41;19.70;56.50
39695;DHT22;25367;-35.352;149.036;2023-05-07T03:25:11;19.60;56.40
39695;DHT22;25367;-35.352;149.036;2023-05-07T03:27:42;19.60;56.40
39695;DHT22;25367;-35.352;149.036;2023-05-07T03:30:13;19.60;56.40
39695;DHT22;25367;-35.352;149.036;2023-05-07T03:32:43;19.60;56.40
39695;DHT22;25367;-35.352;149.036;2023-05-07T03:35:14;19.50;56.40
39695;DHT22;25367;-35.352;149.036;2023-05-07T03:37:43;19.50;56.30
39695;DHT22;25367;-35.352;149.036;2023-05-07T03:40:14;19.50;56.30
39695;DHT22;25367;-35.352;149.036;2023-05-07T03:42:51;19.50;56.30
39695;DHT22;25367;-35.352;149.036;2023-05-07T03:45:24;19.50;56.30
39695;DHT22;25367;-35.352;149.036;2023-05-07T03:48:02;19.40;56.30
39695;DHT22;25367;-35.352;149.036;2023-05-07T03:50:31;19.40;56.30
39695;DHT22;25367;-35.352;149.036;2023-05-07T03:53:01;19.40;56.40
39695;DHT22;25367;-35.352;149.036;2023-05-07T03:55:32;19.40;56.50
39695;DHT22;25367;-35.352;149.036;2023-05-07T03:58:04;19.40;56.40
39695;DHT22;25367;-35.352;149.036;2023-05-07T04:00:33;19.40;56.60
39695;DHT22;25367;-35.352;149.036;2023-05-07T04:03:04;19.40;56.60
39695;DHT22;25367;-35.352;149.036;2023-05-07T04:05:33;19.40;56.70
39695;DHT22;25367;-35.352;149.036;2023-05-07T04:08:05;19.40;56.90
39695;DHT22;25367;-35.352;149.036;2023-05-07T04:10:40;19.30;57.00
39695;DHT22;25367;-35.352;149.036;2023-05-07T04:13:15;19.30;57.20
39695;DHT22;25367;-35.352;149.036;2023-05-07T04:15:45;19.40;57.40
39695;DHT22;25367;-35.352;149.036;2023-05-07T04:18:17;19.40;57.60
39695;DHT22;25367;-35.352;149.036;2023-05-07T04:20:49;19.40;57.80
39695;DHT22;25367;-35.352;149.036;2023-05-07T04:23:18;19.40;58.10
39695;DHT22;25367;-35.352;149.036;2023-05-07T04:25:48;19.50;58.40
39695;DHT22;25367;-35.352;149.036;2023-05-07T04:28:34;19.50;58.30
39695;DHT22;25367;-35.352;149.036;2023-05-07T04:31:07;19.60;58.20
39695;DHT22;25367;-35.352;149.036;2023-05-07T04:33:39;19.60;58.10
39695;DHT22;25367;-35.352;149.036;2023-05-07T04:36:11;19.60;57.90
39695;DHT22;25367;-35.352;149.036;2023-05-07T04:38:49;19.60;57.90
39695;DHT22;25367;-35.352;149.036;2023-05-07T04:41:19;19.60;57.80
39695;DHT22;25367;-35.352;149.036;2023-05-07T04:43:51;19.70;57.80
39695;DHT22;25367;-35.352;149.036;2023-05-07T04:46:23;19.70;57.70
39695;DHT22;25367;-35.352;149.036;2023-05-07T04:48:53;19.70;57.60
39695;DHT22;25367;-35.352;149.036;2023-05-07T04:51:23;19.70;57.40
39695;DHT22;25367;-35.352;149.036;2023-05-07T04:53:53;19.70;57.30
39695;DHT22;25367;-35.352;149.036;2023-05-07T04:56:22;19.70;57.50
39695;DHT22;25367;-35.352;149.036;2023-05-07T04:58:54;19.70;57.50
39695;DHT22;25367;-35.352;149.036;2023-05-07T05:01:24;19.70;57.60
39695;DHT22;25367;-35.352;149.036;2023-05-07T05:03:54;19.70;57.80
39695;DHT22;25367;-35.352;149.036;2023-05-07T05:06:23;19.70;57.90
39695;DHT22;25367;-35.352;149.036;2023-05-07T05:08:54;19.80;58.00
39695;DHT22;25367;-35.352;149.036;2023-05-07T05:11:24;19.80;58.10
39695;DHT22;25367;-35.352;149.036;2023-05-07T05:13:55;19.80;58.00
39695;DHT22;25367;-35.352;149.036;2023-05-07T05:16:25;19.90;57.90
39695;DHT22;25367;-35.352;149.036;2023-05-07T05:18:55;19.90;57.80
39695;DHT22;25367;-35.352;149.036;2023-05-07T05:21:24;19.90;57.80
39695;DHT22;25367;-35.352;149.036;2023-05-07T05:23:59;19.90;57.80
39695;DHT22;25367;-35.352;149.036;2023-05-07T05:26:29;19.90;57.90
39695;DHT22;25367;-35.352;149.036;2023-05-07T05:29:01;20.00;58.00
39695;DHT22;25367;-35.352;149.036;2023-05-07T05:31:32;20.00;58.10
39695;DHT22;25367;-35.352;149.036;2023-05-07T05:34:02;20.00;58.30
39695;DHT22;25367;-35.352;149.036;2023-05-07T05:36:31;20.10;58.40
39695;DHT22;25367;-35.352;149.036;2023-05-07T05:39:01;20.10;58.40
39695;DHT22;25367;-35.352;149.036;2023-05-07T05:41:31;20.20;58.40
39695;DHT22;25367;-35.352;149.036;2023-05-07T05:44:04;20.30;58.40
39695;DHT22;25367;-35.352;149.036;2023-05-07T05:46:33;20.40;58.40
39695;DHT22;25367;-35.352;149.036;2023-05-07T05:49:02;20.40;58.70
39695;DHT22;25367;-35.352;149.036;2023-05-07T05:51:34;20.50;58.40
39695;DHT22;25367;-35.352;149.036;2023-05-07T05:54:03;20.50;59.10
39695;DHT22;25367;-35.352;149.036;2023-05-07T05:56:37;20.60;58.20
39695;DHT22;25367;-35.352;149.036;2023-05-07T05:59:10;20.70;58.20
39695;DHT22;25367;-35.352;149.036;2023-05-07T06:01:40;20.70;58.10
39695;DHT22;25367;-35.352;149.036;2023-05-07T06:04:10;20.70;58.10
39695;DHT22;25367;-35.352;149.036;2023-05-07T06:06:40;20.70;57.80
39695;DHT22;25367;-35.352;149.036;2023-05-07T06:09:09;20.80;57.70
39695;DHT22;25367;-35.352;149.036;2023-05-07T06:11:43;20.80;57.70
39695;DHT22;25367;-35.352;149.036;2023-05-07T06:14:18;20.70;57.50
39695;DHT22;25367;-35.352;149.036;2023-05-07T06:16:48;20.80;57.40
39695;DHT22;25367;-35.352;149.036;2023-05-07T06:19:18;20.80;57.30
39695;DHT22;25367;-35.352;149.036;2023-05-07T06:21:48;20.80;57.20
39695;DHT22;25367;-35.352;149.036;2023-05-07T06:24:17;20.80;56.70
39695;DHT22;25367;-35.352;149.036;2023-05-07T06:26:47;20.80;56.50
39695;DHT22;25367;-35.352;149.036;2023-05-07T06:29:20;20.80;56.40
39695;DHT22;25367;-35.352;149.036;2023-05-07T06:31:49;20.70;56.30
39695;DHT22;25367;-35.352;149.036;2023-05-07T06:34:18;20.70;56.10
39695;DHT22;25367;-35.352;149.036;2023-05-07T06:36:48;20.70;55.60
39695;DHT22;25367;-35.352;149.036;2023-05-07T06:39:28;20.60;55.70
39695;DHT22;25367;-35.352;149.036;2023-05-07T06:41:57;20.60;55.70
39695;DHT22;25367;-35.352;149.036;2023-05-07T06:44:34;20.70;55.70
39695;DHT22;25367;-35.352;149.036;2023-05-07T06:47:18;20.60;55.70
39695;DHT22;25367;-35.352;149.036;2023-05-07T06:49:52;20.60;55.60
39695;DHT22;25367;-35.352;149.036;2023-05-07T06:52:24;20.60;55.60
39695;DHT22;25367;-35.352;149.036;2023-05-07T06:54:55;20.60;55.60
39695;DHT22;25367;-35.352;149.036;2023-05-07T06:57:26;20.60;55.50
39695;DHT22;25367;-35.352;149.036;2023-05-07T06:59:59;20.50;55.40
39695;DHT22;25367;-35.352;149.036;2023-05-07T07:02:28;20.50;55.40
39695;DHT22;25367;-35.352;149.036;2023-05-07T07:04:58;20.50;55.50
39695;DHT22;25367;-35.352;149.036;2023-05-07T07:07:28;20.50;55.40
39695;DHT22;25367;-35.352;149.036;2023-05-07T07:09:58;20.50;55.40
39695;DHT22;25367;-35.352;149.036;2023-05-07T07:12:27;20.40;55.30
39695;DHT22;25367;-35.352;149.036;2023-05-07T07:15:00;20.40;55.40
39695;DHT22;25367;-35.352;149.036;2023-05-07T07:17:30;20.40;55.40
39695;DHT22;25367;-35.352;149.036;2023-05-07T07:19:59;20.40;56.00
39695;DHT22;25367;-35.352;149.036;2023-05-07T07:22:29;20.40;55.50
39695;DHT22;25367;-35.352;149.036;2023-05-07T07:24:58;20.40;55.60
39695;DHT22;25367;-35.352;149.036;2023-05-07T07:27:27;20.30;55.40
39695;DHT22;25367;-35.352;149.036;2023-05-07T07:30:00;20.30;55.40
39695;DHT22;25367;-35.352;149.036;2023-05-07T07:32:31;20.30;55.40
39695;DHT22;25367;-35.352;149.036;2023-05-07T07:35:01;20.30;55.40
39695;DHT22;25367;-35.352;149.036;2023-05-07T07:37:31;20.20;55.60
39695;DHT22;25367;-35.352;149.036;2023-05-07T07:40:01;20.20;55.40
39695;DHT22;25367;-35.352;149.036;2023-05-07T07:42:31;20.20;55.40
39695;DHT22;25367;-35.352;149.036;2023-05-07T07:45:04;20.20;55.40
39695;DHT22;25367;-35.352;149.036;2023-05-07T07:47:36;20.20;55.40
39695;DHT22;25367;-35.352;149.036;2023-05-07T07:50:07;20.20;55.40
39695;DHT22;25367;-35.352;149.036;2023-05-07T07:52:36;20.10;55.40
39695;DHT22;25367;-35.352;149.036;2023-05-07T07:55:06;20.10;55.30
39695;DHT22;25367;-35.352;149.036;2023-05-07T07:57:36;20.10;55.40
39695;DHT22;25367;-35.352;149.036;2023-05-07T08:00:12;20.00;55.40
39695;DHT22;25367;-35.352;149.036;2023-05-07T08:02:46;20.00;55.50
39695;DHT22;25367;-35.352;149.036;2023-05-07T08:05:24;20.00;55.50
39695;DHT22;25367;-35.352;149.036;2023-05-07T08:07:55;20.00;55.50
39695;DHT22;25367;-35.352;149.036;2023-05-07T08:10:29;20.00;55.60
39695;DHT22;25367;-35.352;149.036;2023-05-07T08:13:06;20.00;55.60
39695;DHT22;25367;-35.352;149.036;2023-05-07T08:15:41;20.00;55.70
39695;DHT22;25367;-35.352;149.036;2023-05-07T08:18:10;20.00;55.80
39695;DHT22;25367;-35.352;149.036;2023-05-07T08:20:41;20.00;55.80
39695;DHT22;25367;-35.352;149.036;2023-05-07T08:23:14;20.00;55.80
39695;DHT22;25367;-35.352;149.036;2023-05-07T08:25:45;20.00;55.80
39695;DHT22;25367;-35.352;149.036;2023-05-07T08:28:15;19.90;55.90
39695;DHT22;25367;-35.352;149.036;2023-05-07T08:30:48;19.90;55.80
39695;DHT22;25367;-35.352;149.036;2023-05-07T08:33:18;19.90;55.90
39695;DHT22;25367;-35.352;149.036;2023-05-07T08:35:47;19.90;55.80
39695;DHT22;25367;-35.352;149.036;2023-05-07T08:38:17;19.90;55.80
39695;DHT22;25367;-35.352;149.036;2023-05-07T08:40:47;19.90;55.90
39695;DHT22;25367;-35.352;149.036;2023-05-07T08:43:19;19.90;55.90
39695;DHT22;25367;-35.352;149.036;2023-05-07T08:45:54;19.80;55.90
39695;DHT22;25367;-35.352;149.036;2023-05-07T08:48:28;19.70;56.40
39695;DHT22;25367;-35.352;149.036;2023-05-07T08:51:08;19.80;56.50
39695;DHT22;25367;-35.352;149.036;2023-05-07T08:53:41;19.80;56.70
39695;DHT22;25367;-35.352;149.036;2023-05-07T08:56:14;19.90;56.60
39695;DHT22;25367;-35.352;149.036;2023-05-07T08:58:44;19.90;56.30
39695;DHT22;25367;-35.352;149.036;2023-05-07T09:01:18;19.90;56.20
39695;DHT22;25367;-35.352;149.036;2023-05-07T09:03:53;19.90;56.20
39695;DHT22;25367;-35.352;149.036;2023-05-07T09:06:24;19.90;56.10
39695;DHT22;25367;-35.352;149.036;2023-05-07T09:08:54;19.90;56.00
39695;DHT22;25367;-35.352;149.036;2023-05-07T09:11:26;19.90;55.90
39695;DHT22;25367;-35.352;149.036;2023-05-07T09:13:59;19.90;55.80
39695;DHT22;25367;-35.352;149.036;2023-05-07T09:16:32;19.90;55.80
39695;DHT22;25367;-35.352;149.036;2023-05-07T09:19:02;19.80;55.70
39695;DHT22;25367;-35.352;149.036;2023-05-07T09:21:32;19.90;55.60
39695;DHT22;25367;-35.352;149.036;2023-05-07T09:24:04;19.80;55.50
39695;DHT22;25367;-35.352;149.036;2023-05-07T09:26:42;19.80;55.40
39695;DHT22;25367;-35.352;149.036;2023-05-07T09:29:13;19.80;55.40
39695;DHT22;25367;-35.352;149.036;2023-05-07T09:31:46;19.80;55.40
39695;DHT22;25367;-35.352;149.036;2023-05-07T09:34:18;19.80;55.40
39695;DHT22;25367;-35.352;149.036;2023-05-07T09:36:49;19.80;55.40
39695;DHT22;25367;-35.352;149.036;2023-05-07T09:39:19;19.70;55.40
39695;DHT22;25367;-35.352;149.036;2023-05-07T09:41:49;19.70;55.50
39695;DHT22;25367;-35.352;149.036;2023-05-07T09:44:26;19.70;55.60
39695;DHT22;25367;-35.352;149.036;2023-05-07T09:47:01;19.70;55.80
39695;DHT22;25367;-35.352;149.036;2023-05-07T09:49:40;19.70;56.00
39695;DHT22;25367;-35.352;149.036;2023-05-07T09:52:14;19.80;56.20
39695;DHT22;25367;-35.352;149.036;2023-05-07T09:54:49;19.70;56.30
39695;DHT22;25367;-35.352;149.036;2023-05-07T09:57:22;19.70;56.50
39695;DHT22;25367;-35.352;149.036;2023-05-07T09:59:57;19.80;56.70
39695;DHT22;25367;-35.352;149.036;2023-05-07T10:02:33;19.80;56.90
39695;DHT22;25367;-35.352;149.036;2023-05-07T10:05:05;19.90;57.60
39695;DHT22;25367;-35.352;149.036;2023-05-07T10:07:37;19.90;56.90
39695;DHT22;25367;-35.352;149.036;2023-05-07T10:10:11;19.90;56.80
39695;DHT22;25367;-35.352;149.036;2023-05-07T10:12:45;19.90;56.70
39695;DHT22;25367;-35.352;149.036;2023-05-07T10:15:20;19.90;56.80
39695;DHT22;25367;-35.352;149.036;2023-05-07T10:17:58;19.90;56.80
39695;DHT22;25367;-35.352;149.036;2023-05-07T10:20:29;19.90;56.80
39695;DHT22;25367;-35.352;149.036;2023-05-07T10:22:59;19.90;56.80
39695;DHT22;25367;-35.352;149.036;2023-05-07T10:25:39;19.90;56.80
39695;DHT22;25367;-35.352;149.036;2023-05-07T10:28:16;19.90;56.60
39695;DHT22;25367;-35.352;149.036;2023-05-07T10:30:58;19.90;56.60
39695;DHT22;25367;-35.352;149.036;2023-05-07T10:33:34;19.80;57.00
39695;DHT22;25367;-35.352;149.036;2023-05-07T10:36:06;19.80;56.40
39695;DHT22;25367;-35.352;149.036;2023-05-07T10:38:37;19.80;56.40
39695;DHT22;25367;-35.352;149.036;2023-05-07T10:41:07;19.80;56.40
39695;DHT22;25367;-35.352;149.036;2023-05-07T10:43:41;19.80;56.30
39695;DHT22;25367;-35.352;149.036;2023-05-07T10:46:14;19.80;56.40
39695;DHT22;25367;-35.352;149.036;2023-05-07T10:49:15;19.80;56.50
39695;DHT22;25367;-35.352;149.036;2023-05-07T10:52:14;19.80;56.30
39695;DHT22;25367;-35.352;149.036;2023-05-07T10:55:20;19.80;56.60
39695;DHT22;25367;-35.352;149.036;2023-05-07T10:58:26;19.80;56.50
39695;DHT22;25367;-35.352;149.036;2023-05-07T11:01:03;19.80;56.80
39695;DHT22;25367;-35.352;149.036;2023-05-07T11:04:16;19.80;57.00
39695;DHT22;25367;-35.352;149.036;2023-05-07T11:07:26;19.90;56.90
39695;DHT22;25367;-35.352;149.036;2023-05-07T11:10:03;19.90;57.00
39695;DHT22;25367;-35.352;149.036;2023-05-07T11:13:02;19.90;57.20
39695;DHT22;25367;-35.352;149.036;2023-05-07T11:15:41;19.90;56.90
39695;DHT22;25367;-35.352;149.036;2023-05-07T11:18:20;19.90;56.80
39695;DHT22;25367;-35.352;149.036;2023-05-07T11:20:59;19.90;56.80
39695;DHT22;25367;-35.352;149.036;2023-05-07T11:24:10;19.90;56.70
39695;DHT22;25367;-35.352;149.036;2023-05-07T11:26:56;19.90;56.60
39695;DHT22;25367;-35.352;149.036;2023-05-07T11:29:28;19.90;56.80
39695;DHT22;25367;-35.352;149.036;2023-05-07T11:32:06;19.90;57.30
39695;DHT22;25367;-35.352;149.036;2023-05-07T11:34:55;19.90;56.60
39695;DHT22;25367;-35.352;149.036;2023-05-07T11:37:28;19.90;56.60
39695;DHT22;25367;-35.352;149.036;2023-05-07T11:40:07;19.90;56.50
39695;DHT22;25367;-35.352;149.036;2023-05-07T11:42:38;19.90;56.50
39695;DHT22;25367;-35.352;149.036;2023-05-07T11:45:08;19.90;56.50
39695;DHT22;25367;-35.352;149.036;2023-05-07T11:47:38;19.90;56.40
39695;DHT22;25367;-35.352;149.036;2023-05-07T11:50:12;19.90;56.30
39695;DHT22;25367;-35.352;149.036;2023-05-07T11:52:51;19.90;56.30
39695;DHT22;25367;-35.352;149.036;2023-05-07T11:55:21;19.90;56.30
39695;DHT22;25367;-35.352;149.036;2023-05-07T11:57:50;19.90;56.20
39695;DHT22;25367;-35.352;149.036;2023-05-07T12:00:20;19.80;56.50
39695;DHT22;25367;-35.352;149.036;2023-05-07T12:02:49;19.80;56.60
39695;DHT22;25367;-35.352;149.036;2023-05-07T12:05:19;19.90;56.70
39695;DHT22;25367;-35.352;149.036;2023-05-07T12:07:57;19.90;56.80
39695;DHT22;25367;-35.352;149.036;2023-05-07T12:10:27;19.90;56.80
39695;DHT22;25367;-35.352;149.036;2023-05-07T12:12:56;19.90;57.00
39695;DHT22;25367;-35.352;149.036;2023-05-07T12:15:26;20.00;57.10
39695;DHT22;25367;-35.352;149.036;2023-05-07T12:17:56;20.00;57.00
39695;DHT22;25367;-35.352;149.036;2023-05-07T12:20:26;20.00;56.80
39695;DHT22;25367;-35.352;149.036;2023-05-07T12:22:59;20.00;56.60
39695;DHT22;25367;-35.352;149.036;2023-05-07T12:25:31;20.00;56.70
39695;DHT22;25367;-35.352;149.036;2023-05-07T12:28:02;20.00;56.70
39695;DHT22;25367;-35.352;149.036;2023-05-07T12:30:32;20.00;56.60
39695;DHT22;25367;-35.352;149.036;2023-05-07T21:23:19;16.30;58.60
39695;DHT22;25367;-35.352;149.036;2023-05-07T21:25:48;16.30;59.50
39695;DHT22;25367;-35.352;149.036;2023-05-07T21:28:18;16.40;59.10
39695;DHT22;25367;-35.352;149.036;2023-05-07T21:30:48;16.60;59.40
39695;DHT22;25367;-35.352;149.036;2023-05-07T21:33:18;16.70;59.10
39695;DHT22;25367;-35.352;149.036;2023-05-07T21:35:48;16.80;58.90
